Back to Top

Language: 

My Weather Underground Personal Weather Station Historical Data with Graphs...

Delerius Weather Station Historical Data
Daily Summary for February 6, 2018 Units:  Metric    English   Both
« Previous Day
Next Day »
Daily Weekly Monthly Yearly Custom
  High: Low: Average:
Temperature: 1.8 °C -1.3 °C 0.4 °C
Dew Point: 0.3 °C -2.9 °C -1.6 °C
Humidity: 92 % 75 % 87 %
Wind Speed: 14.5 km/h 0 km/h 5.1 km/h
Wind Gust: 25.7 km/h - -
Wind:- - WNW
Pressure: 1022.9 hPa 1016.8 hPa -
Precipitation: 0 mm    
Historical Graphs
 
 
Tabular Data for February 6, 2018
Time Temperature Dew Point Pressure Wind Wind Speed Wind Gust Humidity Rainfall Rate (Hourly) solar Conditions
00:01 -0.4 °C -1.8 °C 1022.9 hPa Calm     90 % 0 mm 0 W/m2
00:06 -0.4 °C -1.8 °C 1022.6 hPa Calm     90 % 0 mm 0 W/m2
00:11 -0.4 °C -1.8 °C 1022.6 hPa Calm     90 % 0 mm 0 W/m2
00:16 -0.5 °C -1.9 °C 1022.6 hPa Calm     90 % 0 mm 0 W/m2
00:21 -0.5 °C -1.9 °C 1022.6 hPa Calm     90 % 0 mm 0 W/m2
00:26 -0.5 °C -1.9 °C 1022.6 hPa Calm     90 % 0 mm 0 W/m2
00:31 -0.6 °C -1.9 °C 1022.2 hPa Calm     91 % 0 mm 0 W/m2
00:36 -0.6 °C -1.9 °C 1022.2 hPa Calm     91 % 0 mm 0 W/m2
00:41 -0.6 °C -1.9 °C 1022.2 hPa Calm     91 % 0 mm 0 W/m2
00:46 -0.6 °C -1.9 °C 1022.2 hPa Calm     91 % 0 mm 0 W/m2
00:51 -0.6 °C -1.9 °C 1022.2 hPa Calm     91 % 0 mm 0 W/m2
00:56 -0.6 °C -1.9 °C 1022.2 hPa Calm     91 % 0 mm 0 W/m2
01:01 -0.6 °C -1.9 °C 1022.2 hPa Calm     91 % 0 mm 0 W/m2
01:06 -0.6 °C -1.9 °C 1022.2 hPa Calm     91 % 0 mm 0 W/m2
01:11 -0.6 °C -1.9 °C 1021.9 hPa Calm     91 % 0 mm 0 W/m2
01:16 -0.6 °C -1.9 °C 1021.9 hPa Calm     91 % 0 mm 0 W/m2
01:22 -0.6 °C -1.9 °C 1021.9 hPa Calm     91 % 0 mm 0 W/m2
01:27 -0.6 °C -1.9 °C 1021.9 hPa Calm     91 % 0 mm 0 W/m2
01:32 -0.6 °C -1.9 °C 1021.9 hPa Calm     91 % 0 mm 0 W/m2
01:37 -0.6 °C -1.9 °C 1021.9 hPa Calm     91 % 0 mm 0 W/m2
01:42 -0.6 °C -1.9 °C 1021.6 hPa Calm     91 % 0 mm 0 W/m2
01:47 -0.7 °C -2 °C 1021.6 hPa Calm     91 % 0 mm 0 W/m2
01:52 -0.7 °C -2 °C 1021.6 hPa Calm     91 % 0 mm 0 W/m2
01:57 -0.7 °C -1.8 °C 1021.6 hPa Calm     92 % 0 mm 0 W/m2
02:02 -0.7 °C -2 °C 1021.6 hPa Calm     91 % 0 mm 0 W/m2
02:07 -0.7 °C -2 °C 1021.6 hPa Calm     91 % 0 mm 0 W/m2
02:12 -0.8 °C -2.1 °C 1021.6 hPa Calm     91 % 0 mm 0 W/m2
02:17 -0.8 °C -2.1 °C 1021.6 hPa Calm     91 % 0 mm 0 W/m2
02:22 -0.8 °C -2.1 °C 1021.2 hPa Calm     91 % 0 mm 0 W/m2
02:27 -0.8 °C -2.1 °C 1021.2 hPa Calm     91 % 0 mm 0 W/m2
02:32 -0.9 °C -2.2 °C 1021.2 hPa Calm     91 % 0 mm 0 W/m2
02:37 -0.9 °C -2.2 °C 1021.2 hPa Calm     91 % 0 mm 0 W/m2
02:42 -0.9 °C -2.2 °C 1021.2 hPa Calm     91 % 0 mm 0 W/m2
02:47 -0.9 °C -2.2 °C 1020.9 hPa Calm     91 % 0 mm 0 W/m2
02:52 -0.9 °C -2.2 °C 1020.9 hPa Calm     91 % 0 mm 0 W/m2
02:57 -0.9 °C -2.1 °C 1020.9 hPa Calm     92 % 0 mm 0 W/m2
03:02 -0.9 °C -2.1 °C 1020.9 hPa Calm     92 % 0 mm 0 W/m2
03:07 -0.9 °C -2.1 °C 1020.9 hPa Calm   3.2 km/h 92 % 0 mm 0 W/m2
03:12 -0.8 °C -1.9 °C 1020.9 hPa Calm     92 % 0 mm 0 W/m2
03:17 -0.8 °C -1.9 °C 1020.5 hPa Calm     92 % 0 mm 0 W/m2
03:22 -0.8 °C -1.9 °C 1020.5 hPa Calm     92 % 0 mm 0 W/m2
03:27 -0.8 °C -1.9 °C 1020.5 hPa Calm     92 % 0 mm 0 W/m2
03:32 -0.8 °C -1.9 °C 1020.5 hPa WNW 1.6 km/h 3.2 km/h 92 % 0 mm 0 W/m2
03:37 -0.8 °C -1.9 °C 1020.5 hPa WNW 1.6 km/h 3.2 km/h 92 % 0 mm 0 W/m2
03:42 -0.9 °C -2.1 °C 1020.5 hPa Calm     92 % 0 mm 0 W/m2
03:47 -0.9 °C -2.1 °C 1020.5 hPa WNW 3.2 km/h 6.4 km/h 92 % 0 mm 0 W/m2
03:52 -0.8 °C -1.9 °C 1020.2 hPa WNW 1.6 km/h 3.2 km/h 92 % 0 mm 0 W/m2
03:57 -0.8 °C -1.9 °C 1020.2 hPa Calm     92 % 0 mm 0 W/m2
04:02 -0.8 °C -1.9 °C 1020.2 hPa Calm     92 % 0 mm 0 W/m2
04:07 -0.8 °C -1.9 °C 1020.2 hPa Calm     92 % 0 mm 0 W/m2
04:12 -0.9 °C -2.1 °C 1020.2 hPa Calm     92 % 0 mm 0 W/m2
04:17 -1 °C -2.1 °C 1020.2 hPa Calm     92 % 0 mm 0 W/m2
04:22 -1.1 °C -2.4 °C 1020.2 hPa Calm     91 % 0 mm 0 W/m2
04:27 -1.2 °C -2.5 °C 1019.9 hPa Calm   3.2 km/h 91 % 0 mm 0 W/m2
04:32 -1.2 °C -2.5 °C 1019.9 hPa Calm     91 % 0 mm 0 W/m2
04:37 -1.2 °C -2.3 °C 1019.5 hPa WNW 1.6 km/h 3.2 km/h 92 % 0 mm 0 W/m2
04:42 -1.2 °C -2.5 °C 1019.5 hPa Calm   3.2 km/h 91 % 0 mm 0 W/m2
04:47 -1.3 °C -2.6 °C 1019.5 hPa NW 6.4 km/h 8 km/h 91 % 0 mm 0 W/m2
04:52 -1.3 °C -2.6 °C 1019.5 hPa WNW 1.6 km/h 4.8 km/h 91 % 0 mm 0 W/m2
04:57 -1.2 °C -2.3 °C 1019.5 hPa NNE 3.2 km/h 8 km/h 92 % 0 mm 0 W/m2
05:02 -1.2 °C -2.5 °C 1019.5 hPa NNE 1.6 km/h 3.2 km/h 91 % 0 mm 0 W/m2
05:07 -1.1 °C -2.4 °C 1019.5 hPa WNW 4.8 km/h 8 km/h 91 % 0 mm 0 W/m2
05:12 -1.1 °C -2.4 °C 1019.5 hPa Calm   3.2 km/h 91 % 0 mm 0 W/m2
05:17 -1 °C -2.4 °C 1019.5 hPa WNW 1.6 km/h 3.2 km/h 90 % 0 mm 0 W/m2
05:22 -0.9 °C -2.3 °C 1019.5 hPa Calm     90 % 0 mm 0 W/m2
05:27 -0.9 °C -2.5 °C 1019.5 hPa Calm     89 % 0 mm 0 W/m2
05:33 -0.9 °C -2.5 °C 1019.2 hPa Calm     89 % 0 mm 0 W/m2
05:38 -0.9 °C -2.5 °C 1019.2 hPa Calm     89 % 0 mm 0 W/m2
05:43 -0.9 °C -2.3 °C 1019.2 hPa Calm     90 % 0 mm 0 W/m2
05:48 -0.9 °C -2.3 °C 1019.2 hPa Calm     90 % 0 mm 0 W/m2
05:53 -0.9 °C -2.3 °C 1019.2 hPa Calm     90 % 0 mm 0 W/m2
05:58 -1 °C -2.4 °C 1019.2 hPa Calm     90 % 0 mm 0 W/m2
06:03 -1 °C -2.4 °C 1019.2 hPa Calm     90 % 0 mm 0 W/m2
06:08 -1 °C -2.4 °C 1019.2 hPa Calm     90 % 0 mm 0 W/m2
06:13 -1.1 °C -2.6 °C 1018.8 hPa Calm     90 % 0 mm 0 W/m2
06:18 -1.1 °C -2.6 °C 1018.8 hPa Calm     90 % 0 mm 0 W/m2
06:23 -1.1 °C -2.6 °C 1018.8 hPa Calm     90 % 0 mm 0 W/m2
06:28 -1.1 °C -2.6 °C 1018.8 hPa Calm     90 % 0 mm 0 W/m2
06:33 -1.1 °C -2.6 °C 1018.8 hPa Calm     90 % 0 mm 0 W/m2
06:38 -1.1 °C -2.7 °C 1018.5 hPa Calm     89 % 0 mm 0 W/m2
06:43 -1.1 °C -2.6 °C 1018.5 hPa Calm     90 % 0 mm 0 W/m2
06:48 -1.1 °C -2.6 °C 1018.5 hPa Calm     90 % 0 mm 0 W/m2
06:53 -1.1 °C -2.6 °C 1018.5 hPa Calm     90 % 0 mm 0 W/m2
06:58 -1.1 °C -2.6 °C 1018.5 hPa Calm     90 % 0 mm 0 W/m2
07:03 -1.1 °C -2.6 °C 1018.5 hPa Calm     90 % 0 mm 0 W/m2
07:08 -1 °C -2.4 °C 1018.5 hPa Calm     90 % 0 mm 0 W/m2
07:13 -1 °C -2.4 °C 1018.5 hPa Calm     90 % 0 mm 0 W/m2
07:18 -0.9 °C -2.3 °C 1018.5 hPa Calm     90 % 0 mm 0 W/m2
07:23 -0.9 °C -2.3 °C 1018.5 hPa Calm     90 % 0 mm 0 W/m2
07:28 -0.9 °C -2.3 °C 1018.5 hPa Calm     90 % 0 mm 0 W/m2
07:33 -0.8 °C -2.2 °C 1018.8 hPa Calm     90 % 0 mm 0 W/m2
07:38 -0.8 °C -2.2 °C 1018.5 hPa Calm   3.2 km/h 90 % 0 mm 0 W/m2
07:43 -0.8 °C -2.2 °C 1018.5 hPa Calm   3.2 km/h 90 % 0 mm 0 W/m2
07:48 -0.8 °C -2.4 °C 1018.5 hPa WNW 1.6 km/h 6.4 km/h 89 % 0 mm 5 W/m2
07:53 -0.7 °C -2.4 °C 1018.5 hPa Calm     88 % 0 mm 7 W/m2
07:58 -0.7 °C -2.4 °C 1018.5 hPa WNW 1.6 km/h 8 km/h 88 % 0 mm 11 W/m2
08:03 -0.6 °C -2.5 °C 1018.5 hPa WNW 6.4 km/h 11.3 km/h 87 % 0 mm 14 W/m2
08:08 -0.4 °C -2.6 °C 1018.5 hPa WNW 6.4 km/h 12.9 km/h 85 % 0 mm 18 W/m2
08:13 -0.3 °C -2.7 °C 1018.5 hPa NW 6.4 km/h 12.9 km/h 84 % 0 mm 12 W/m2
08:18 -0.2 °C -2.7 °C 1018.5 hPa WNW 9.7 km/h 14.5 km/h 83 % 0 mm 16 W/m2
08:23 -0.1 °C -2.8 °C 1018.5 hPa WNW 6.4 km/h 9.7 km/h 82 % 0 mm 16 W/m2
08:28 -0.1 °C -2.8 °C 1018.5 hPa WNW 9.7 km/h 12.9 km/h 82 % 0 mm 18 W/m2
08:33 -0.1 °C -2.9 °C 1018.5 hPa West 6.4 km/h 9.7 km/h 81 % 0 mm 21 W/m2
08:38 0 °C -2.9 °C 1018.5 hPa West 4.8 km/h 8 km/h 81 % 0 mm 26 W/m2
08:43 0.1 °C -2.8 °C 1018.5 hPa WNW 6.4 km/h 9.7 km/h 81 % 0 mm 32 W/m2
08:48 0.1 °C -2.8 °C 1018.5 hPa West 3.2 km/h 8 km/h 81 % 0 mm 30 W/m2
08:53 0.1 °C -2.8 °C 1018.5 hPa West 3.2 km/h 9.7 km/h 81 % 0 mm 30 W/m2
08:58 0.1 °C -2.8 °C 1018.5 hPa WSW 8 km/h 12.9 km/h 81 % 0 mm 28 W/m2
09:04 0.1 °C -2.8 °C 1018.5 hPa West 6.4 km/h 9.7 km/h 81 % 0 mm 25 W/m2
09:09 0.1 °C -2.6 °C 1018.5 hPa West 6.4 km/h 11.3 km/h 82 % 0 mm 26 W/m2
09:14 0.1 °C -2.4 °C 1018.5 hPa West 3.2 km/h 8 km/h 83 % 0 mm 32 W/m2
09:19 0 °C -2.6 °C 1018.5 hPa West 4.8 km/h 8 km/h 83 % 0 mm 37 W/m2
09:24 0 °C -2.4 °C 1018.5 hPa WSW 4.8 km/h 8 km/h 84 % 0 mm 42 W/m2
09:29 0 °C -2.4 °C 1018.5 hPa West 3.2 km/h 8 km/h 84 % 0 mm 47 W/m2
09:34 0 °C -2.4 °C 1018.5 hPa West 3.2 km/h 9.7 km/h 84 % 0 mm 69 W/m2
09:39 0 °C -2.4 °C 1018.5 hPa WSW 3.2 km/h 8 km/h 84 % 0 mm 76 W/m2
09:44 0.1 °C -2.3 °C 1018.5 hPa WSW 3.2 km/h 6.4 km/h 84 % 0 mm 90 W/m2
09:49 0.1 °C -2.1 °C 1018.5 hPa WSW 3.2 km/h 6.4 km/h 85 % 0 mm 93 W/m2
09:54 0.2 °C -2.2 °C 1018.5 hPa Calm   3.2 km/h 84 % 0 mm 88 W/m2
09:59 0.2 °C -2.2 °C 1018.5 hPa WSW 1.6 km/h 4.8 km/h 84 % 0 mm 83 W/m2
10:04 0.3 °C -2.1 °C 1018.2 hPa WSW 3.2 km/h 6.4 km/h 84 % 0 mm 102 W/m2
10:09 0.3 °C -2.1 °C 1018.5 hPa WSW 1.6 km/h 4.8 km/h 84 % 0 mm 100 W/m2
10:14 0.4 °C -2.2 °C 1018.5 hPa WSW 1.6 km/h 3.2 km/h 83 % 0 mm 97 W/m2
10:19 0.4 °C -2.2 °C 1018.5 hPa WSW 3.2 km/h 6.4 km/h 83 % 0 mm 83 W/m2
10:24 0.5 °C -2.2 °C 1018.2 hPa WSW 1.6 km/h 3.2 km/h 82 % 0 mm 74 W/m2
10:29 0.6 °C -2.1 °C 1018.2 hPa WSW 1.6 km/h 3.2 km/h 82 % 0 mm 74 W/m2
10:34 0.6 °C -2.1 °C 1018.2 hPa Calm   1.6 km/h 82 % 0 mm 81 W/m2
10:39 0.7 °C -2 °C 1018.2 hPa Calm     82 % 0 mm 88 W/m2
10:44 0.7 °C -2 °C 1018.2 hPa Calm     82 % 0 mm 97 W/m2
10:49 0.8 °C -2.1 °C 1018.2 hPa Calm     81 % 0 mm 114 W/m2
10:54 0.8 °C -1.9 °C 1018.2 hPa Calm     82 % 0 mm 121 W/m2
10:59 0.9 °C -2 °C 1018.2 hPa Calm     81 % 0 mm 118 W/m2
11:04 1.1 °C -1.8 °C 1018.2 hPa Calm     81 % 0 mm 116 W/m2
11:09 1.1 °C -1.8 °C 1018.2 hPa Calm     81 % 0 mm 118 W/m2
11:14 1.2 °C -1.9 °C 1018.2 hPa Calm     80 % 0 mm 107 W/m2
11:19 1.3 °C -1.8 °C 1018.2 hPa Calm     80 % 0 mm 128 W/m2
11:24 1.4 °C -1.7 °C 1018.2 hPa Calm     80 % 0 mm 134 W/m2
11:29 1.4 °C -1.8 °C 1018.2 hPa Calm   3.2 km/h 79 % 0 mm 123 W/m2
11:34 1.6 °C -1.8 °C 1018.2 hPa WNW 1.6 km/h 8 km/h 78 % 0 mm 95 W/m2
11:39 1.7 °C -1.9 °C 1018.2 hPa WNW 8 km/h 11.3 km/h 77 % 0 mm 83 W/m2
11:44 1.8 °C -2 °C 1018.2 hPa WNW 8 km/h 12.9 km/h 76 % 0 mm 69 W/m2
11:49 1.8 °C -2.2 °C 1018.2 hPa NW 4.8 km/h 11.3 km/h 75 % 0 mm 58 W/m2
11:54 1.8 °C -2.2 °C 1018.2 hPa WNW 8 km/h 12.9 km/h 75 % 0 mm 63 W/m2
11:59 1.8 °C -2 °C 1017.8 hPa NW 6.4 km/h 12.9 km/h 76 % 0 mm 74 W/m2
12:05 1.7 °C -2.1 °C 1017.8 hPa WNW 4.8 km/h 9.7 km/h 76 % 0 mm 60 W/m2
12:10 1.7 °C -2.1 °C 1017.8 hPa WNW 4.8 km/h 9.7 km/h 76 % 0 mm 58 W/m2
12:15 1.7 °C -2.1 °C 1017.8 hPa WNW 4.8 km/h 9.7 km/h 76 % 0 mm 56 W/m2
12:20 1.7 °C -1.9 °C 1017.8 hPa NW 3.2 km/h 9.7 km/h 77 % 0 mm 56 W/m2
12:25 1.7 °C -1.9 °C 1017.8 hPa NW 1.6 km/h 6.4 km/h 77 % 0 mm 58 W/m2
12:30 1.7 °C -1.7 °C 1017.8 hPa WNW 3.2 km/h 8 km/h 78 % 0 mm 56 W/m2
12:35 1.7 °C -1.7 °C 1017.8 hPa WNW 6.4 km/h 12.9 km/h 78 % 0 mm 60 W/m2
12:40 1.7 °C -1.7 °C 1017.5 hPa NW 8 km/h 11.3 km/h 78 % 0 mm 60 W/m2
12:45 1.7 °C -1.6 °C 1017.8 hPa NW 6.4 km/h 11.3 km/h 79 % 0 mm 62 W/m2
12:50 1.7 °C -1.6 °C 1017.5 hPa NW 8 km/h 12.9 km/h 79 % 0 mm 70 W/m2
12:55 1.6 °C -1.5 °C 1017.5 hPa NW 8 km/h 12.9 km/h 80 % 0 mm 83 W/m2
13:00 1.6 °C -1.5 °C 1017.5 hPa WNW 8 km/h 11.3 km/h 80 % 0 mm 100 W/m2
13:05 1.7 °C -1.2 °C 1017.5 hPa WNW 9.7 km/h 14.5 km/h 81 % 0 mm 72 W/m2
13:10 1.7 °C -1.2 °C 1017.5 hPa NW 8 km/h 14.5 km/h 81 % 0 mm 67 W/m2
13:15 1.6 °C -1.3 °C 1017.2 hPa NW 6.4 km/h 12.9 km/h 81 % 0 mm 72 W/m2
13:20 1.7 °C -1.1 °C 1017.2 hPa NW 4.8 km/h 9.7 km/h 82 % 0 mm 63 W/m2
13:25 1.7 °C -1.1 °C 1017.2 hPa NW 6.4 km/h 11.3 km/h 82 % 0 mm 56 W/m2
13:30 1.7 °C -1.1 °C 1017.2 hPa NW 8 km/h 12.9 km/h 82 % 0 mm 54 W/m2
13:35 1.7 °C -1.1 °C 1017.2 hPa WNW 6.4 km/h 12.9 km/h 82 % 0 mm 74 W/m2
13:40 1.7 °C -1.1 °C 1017.2 hPa WNW 6.4 km/h 11.3 km/h 82 % 0 mm 79 W/m2
13:45 1.7 °C -0.9 °C 1017.2 hPa WNW 4.8 km/h 8 km/h 83 % 0 mm 65 W/m2
13:50 1.7 °C -0.9 °C 1017.2 hPa WNW 4.8 km/h 11.3 km/h 83 % 0 mm 60 W/m2
13:55 1.8 °C -0.8 °C 1017.2 hPa WNW 6.4 km/h 14.5 km/h 83 % 0 mm 56 W/m2
14:00 1.8 °C -0.8 °C 1017.2 hPa WNW 12.9 km/h 19.3 km/h 83 % 0 mm 53 W/m2
14:05 1.7 °C -0.9 °C 1017.2 hPa WNW 6.4 km/h 12.9 km/h 83 % 0 mm 65 W/m2
14:10 1.7 °C -0.7 °C 1017.2 hPa WNW 8 km/h 12.9 km/h 84 % 0 mm 62 W/m2
14:15 1.7 °C -0.7 °C 1017.2 hPa WNW 9.7 km/h 16.1 km/h 84 % 0 mm 60 W/m2
14:20 1.7 °C -0.7 °C 1017.2 hPa NW 11.3 km/h 22.5 km/h 84 % 0 mm 51 W/m2
14:25 1.6 °C -0.8 °C 1016.8 hPa WNW 12.9 km/h 19.3 km/h 84 % 0 mm 51 W/m2
14:30 1.6 °C -0.8 °C 1016.8 hPa WNW 14.5 km/h 19.3 km/h 84 % 0 mm 74 W/m2
14:35 1.6 °C -0.7 °C 1016.8 hPa WNW 12.9 km/h 20.9 km/h 85 % 0 mm 93 W/m2
14:40 1.6 °C -0.7 °C 1016.8 hPa WNW 12.9 km/h 22.5 km/h 85 % 0 mm 114 W/m2
14:45 1.6 °C -0.5 °C 1016.8 hPa WNW 11.3 km/h 16.1 km/h 86 % 0 mm 105 W/m2
14:50 1.7 °C -0.4 °C 1017.2 hPa WNW 14.5 km/h 22.5 km/h 86 % 0 mm 155 W/m2
14:55 1.7 °C -0.2 °C 1017.2 hPa WNW 12.9 km/h 20.9 km/h 87 % 0 mm 93 W/m2
15:00 1.7 °C -0.2 °C 1016.8 hPa WNW 11.3 km/h 14.5 km/h 87 % 0 mm 86 W/m2
15:05 1.8 °C -0.1 °C 1016.8 hPa WNW 6.4 km/h 14.5 km/h 87 % 0 mm 79 W/m2
15:10 1.8 °C -0.1 °C 1016.8 hPa NW 8 km/h 16.1 km/h 87 % 0 mm 63 W/m2
15:15 1.8 °C -0.1 °C 1017.2 hPa NW 9.7 km/h 14.5 km/h 87 % 0 mm 47 W/m2
15:20 1.8 °C -0.1 °C 1017.2 hPa NW 12.9 km/h 17.7 km/h 87 % 0 mm 49 W/m2
15:25 1.8 °C 0 °C 1017.2 hPa NW 8 km/h 14.5 km/h 88 % 0 mm 42 W/m2
15:30 1.8 °C 0 °C 1017.2 hPa NW 11.3 km/h 20.9 km/h 88 % 0 mm 47 W/m2
15:35 1.8 °C 0 °C 1017.2 hPa NW 8 km/h 12.9 km/h 88 % 0 mm 42 W/m2
15:40 1.8 °C 0.2 °C 1017.2 hPa WNW 11.3 km/h 20.9 km/h 89 % 0 mm 33 W/m2
15:45 1.7 °C 0.1 °C 1017.2 hPa WNW 12.9 km/h 19.3 km/h 89 % 0 mm 26 W/m2
15:50 1.6 °C 0 °C 1017.2 hPa WNW 11.3 km/h 19.3 km/h 89 % 0 mm 25 W/m2
15:55 1.6 °C 0.1 °C 1017.2 hPa WNW 11.3 km/h 19.3 km/h 90 % 0 mm 33 W/m2
16:00 1.6 °C 0.1 °C 1017.2 hPa NW 9.7 km/h 14.5 km/h 90 % 0 mm 32 W/m2
16:05 1.6 °C 0.1 °C 1017.2 hPa WNW 8 km/h 12.9 km/h 90 % 0 mm 25 W/m2
16:10 1.5 °C 0.1 °C 1017.2 hPa NW 8 km/h 14.5 km/h 90 % 0 mm 21 W/m2
16:15 1.5 °C 0.2 °C 1017.5 hPa NW 6.4 km/h 9.7 km/h 91 % 0 mm 25 W/m2
16:20 1.6 °C 0.3 °C 1017.5 hPa NW 9.7 km/h 16.1 km/h 91 % 0 mm 12 W/m2
16:25 1.6 °C 0.3 °C 1017.5 hPa NW 6.4 km/h 14.5 km/h 91 % 0 mm 9 W/m2
16:30 1.6 °C 0.3 °C 1017.5 hPa NW 4.8 km/h 11.3 km/h 91 % 0 mm 11 W/m2
16:35 1.6 °C 0.3 °C 1017.5 hPa NW 6.4 km/h 12.9 km/h 91 % 0 mm 9 W/m2
16:40 1.6 °C 0.3 °C 1017.5 hPa WNW 6.4 km/h 12.9 km/h 91 % 0 mm 7 W/m2
16:45 1.6 °C 0.3 °C 1017.5 hPa WNW 6.4 km/h 14.5 km/h 91 % 0 mm 5 W/m2
16:50 1.6 °C 0.3 °C 1017.5 hPa NW 9.7 km/h 14.5 km/h 91 % 0 mm 0 W/m2
16:56 1.5 °C 0.2 °C 1017.5 hPa NW 6.4 km/h 12.9 km/h 91 % 0 mm 0 W/m2
17:01 1.5 °C 0.2 °C 1017.5 hPa WNW 8 km/h 16.1 km/h 91 % 0 mm 0 W/m2
17:06 1.5 °C 0.2 °C 1017.8 hPa WNW 6.4 km/h 12.9 km/h 91 % 0 mm 0 W/m2
17:11 1.5 °C 0.2 °C 1017.8 hPa NW 9.7 km/h 17.7 km/h 91 % 0 mm 0 W/m2
17:16 1.5 °C 0.2 °C 1017.8 hPa NW 9.7 km/h 17.7 km/h 91 % 0 mm 0 W/m2
17:21 1.4 °C 0.1 °C 1017.8 hPa WNW 9.7 km/h 14.5 km/h 91 % 0 mm 0 W/m2
17:26 1.4 °C 0.1 °C 1017.8 hPa NW 11.3 km/h 20.9 km/h 91 % 0 mm 0 W/m2
17:31 1.4 °C 0.1 °C 1017.8 hPa NW 8 km/h 16.1 km/h 91 % 0 mm 0 W/m2
17:36 1.4 °C 0.1 °C 1017.8 hPa NW 9.7 km/h 19.3 km/h 91 % 0 mm 0 W/m2
17:41 1.4 °C 0.2 °C 1017.8 hPa WNW 9.7 km/h 14.5 km/h 92 % 0 mm 0 W/m2
17:46 1.4 °C 0.2 °C 1018.2 hPa WNW 8 km/h 17.7 km/h 92 % 0 mm 0 W/m2
17:51 1.4 °C 0.1 °C 1018.2 hPa WNW 8 km/h 16.1 km/h 91 % 0 mm 0 W/m2
17:56 1.4 °C 0.1 °C 1018.2 hPa NW 6.4 km/h 14.5 km/h 91 % 0 mm 0 W/m2
18:01 1.4 °C 0.1 °C 1018.2 hPa NW 8 km/h 11.3 km/h 91 % 0 mm 0 W/m2
18:06 1.4 °C 0.1 °C 1018.2 hPa WNW 8 km/h 11.3 km/h 91 % 0 mm 0 W/m2
18:11 1.4 °C 0.1 °C 1018.2 hPa WNW 9.7 km/h 14.5 km/h 91 % 0 mm 0 W/m2
18:16 1.4 °C 0.1 °C 1018.2 hPa NW 8 km/h 14.5 km/h 91 % 0 mm 0 W/m2
18:21 1.4 °C 0.1 °C 1018.2 hPa WNW 9.7 km/h 16.1 km/h 91 % 0 mm 0 W/m2
18:36 1.4 °C -0.1 °C 1018.2 hPa NW 12.9 km/h 17.7 km/h 90 % 0 mm 0 W/m2
18:41 1.4 °C -0.1 °C 1018.5 hPa NW 14.5 km/h 25.7 km/h 90 % 0 mm 0 W/m2
18:46 1.4 °C -0.2 °C 1018.5 hPa NW 11.3 km/h 20.9 km/h 89 % 0 mm 0 W/m2
18:51 1.5 °C -0.1 °C 1018.5 hPa WNW 9.7 km/h 20.9 km/h 89 % 0 mm 0 W/m2
18:56 1.5 °C -0.3 °C 1018.5 hPa NW 11.3 km/h 17.7 km/h 88 % 0 mm 0 W/m2
19:01 1.5 °C -0.3 °C 1018.5 hPa NW 9.7 km/h 20.9 km/h 88 % 0 mm 0 W/m2
19:06 1.5 °C -0.4 °C 1018.5 hPa NW 14.5 km/h 20.9 km/h 87 % 0 mm 0 W/m2
19:11 1.5 °C -0.4 °C 1018.5 hPa NW 11.3 km/h 17.7 km/h 87 % 0 mm 0 W/m2
19:16 1.5 °C -0.4 °C 1018.5 hPa NW 11.3 km/h 16.1 km/h 87 % 0 mm 0 W/m2
19:21 1.4 °C -0.6 °C 1018.5 hPa WNW 11.3 km/h 24.1 km/h 87 % 0 mm 0 W/m2
19:26 1.4 °C -0.6 °C 1018.5 hPa NW 11.3 km/h 17.7 km/h 87 % 0 mm 0 W/m2
19:31 1.4 °C -0.7 °C 1018.8 hPa NW 9.7 km/h 14.5 km/h 86 % 0 mm 0 W/m2
19:36 1.4 °C -0.7 °C 1018.8 hPa NW 8 km/h 16.1 km/h 86 % 0 mm 0 W/m2
19:41 1.4 °C -0.7 °C 1018.8 hPa NW 11.3 km/h 19.3 km/h 86 % 0 mm 0 W/m2
19:46 1.3 °C -0.8 °C 1018.8 hPa NW 9.7 km/h 16.1 km/h 86 % 0 mm 0 W/m2
19:51 1.3 °C -0.8 °C 1018.5 hPa NW 14.5 km/h 22.5 km/h 86 % 0 mm 0 W/m2
19:56 1.3 °C -0.8 °C 1018.8 hPa NW 9.7 km/h 17.7 km/h 86 % 0 mm 0 W/m2
20:01 1.3 °C -0.8 °C 1018.8 hPa NW 9.7 km/h 14.5 km/h 86 % 0 mm 0 W/m2
20:06 1.3 °C -0.8 °C 1018.8 hPa NW 11.3 km/h 22.5 km/h 86 % 0 mm 0 W/m2
20:11 1.2 °C -0.9 °C 1018.8 hPa NW 11.3 km/h 19.3 km/h 86 % 0 mm 0 W/m2
20:16 1.2 °C -0.9 °C 1018.8 hPa WNW 9.7 km/h 14.5 km/h 86 % 0 mm 0 W/m2
20:21 1.2 °C -0.9 °C 1018.8 hPa NW 9.7 km/h 14.5 km/h 86 % 0 mm 0 W/m2
20:26 1.2 °C -1.1 °C 1018.8 hPa NW 9.7 km/h 17.7 km/h 85 % 0 mm 0 W/m2
20:31 1.2 °C -1.1 °C 1018.8 hPa WNW 11.3 km/h 20.9 km/h 85 % 0 mm 0 W/m2
20:36 1.2 °C -1.1 °C 1019.2 hPa WNW 9.7 km/h 16.1 km/h 85 % 0 mm 0 W/m2
20:41 1.1 °C -1.2 °C 1019.2 hPa NW 11.3 km/h 16.1 km/h 85 % 0 mm 0 W/m2
20:46 1.1 °C -1.2 °C 1019.2 hPa WNW 8 km/h 11.3 km/h 85 % 0 mm 0 W/m2
20:51 1.1 °C -1.2 °C 1019.2 hPa NW 8 km/h 12.9 km/h 85 % 0 mm 0 W/m2
20:56 1.1 °C -1.2 °C 1019.2 hPa NW 8 km/h 12.9 km/h 85 % 0 mm 0 W/m2
21:01 1.1 °C -1.3 °C 1019.2 hPa NW 9.7 km/h 17.7 km/h 84 % 0 mm 0 W/m2
21:06 1.1 °C -1.3 °C 1019.2 hPa NW 8 km/h 12.9 km/h 84 % 0 mm 0 W/m2
21:11 1.1 °C -1.3 °C 1019.2 hPa WNW 9.7 km/h 17.7 km/h 84 % 0 mm 0 W/m2
21:16 1.1 °C -1.3 °C 1019.2 hPa WNW 9.7 km/h 14.5 km/h 84 % 0 mm 0 W/m2
21:21 1.1 °C -1.3 °C 1018.8 hPa WNW 6.4 km/h 11.3 km/h 84 % 0 mm 0 W/m2
21:26 1 °C -1.4 °C 1018.8 hPa WNW 8 km/h 12.9 km/h 84 % 0 mm 0 W/m2
21:31 0.9 °C -1.5 °C 1018.8 hPa NW 8 km/h 14.5 km/h 84 % 0 mm 0 W/m2
21:36 0.9 °C -1.5 °C 1018.8 hPa WNW 4.8 km/h 12.9 km/h 84 % 0 mm 0 W/m2
21:41 0.9 °C -1.5 °C 1018.8 hPa NW 4.8 km/h 11.3 km/h 84 % 0 mm 0 W/m2
21:47 0.9 °C -1.5 °C 1018.8 hPa WNW 11.3 km/h 17.7 km/h 84 % 0 mm 0 W/m2
21:51 0.9 °C -1.7 °C 1018.8 hPa NW 9.7 km/h 19.3 km/h 83 % 0 mm 0 W/m2
21:56 0.9 °C -1.7 °C 1019.2 hPa WNW 9.7 km/h 14.5 km/h 83 % 0 mm 0 W/m2
22:02 0.9 °C -1.7 °C 1019.2 hPa WNW 6.4 km/h 11.3 km/h 83 % 0 mm 0 W/m2
22:06 0.8 °C -1.8 °C 1019.2 hPa WNW 6.4 km/h 12.9 km/h 83 % 0 mm 0 W/m2
22:11 0.8 °C -1.8 °C 1019.2 hPa NW 9.7 km/h 16.1 km/h 83 % 0 mm 0 W/m2
22:17 0.8 °C -1.8 °C 1019.2 hPa WNW 8 km/h 14.5 km/h 83 % 0 mm 0 W/m2
22:22 0.8 °C -1.8 °C 1019.2 hPa WNW 11.3 km/h 16.1 km/h 83 % 0 mm 0 W/m2
22:27 0.8 °C -1.8 °C 1019.2 hPa WNW 9.7 km/h 16.1 km/h 83 % 0 mm 0 W/m2
22:32 0.8 °C -1.8 °C 1019.2 hPa WNW 12.9 km/h 20.9 km/h 83 % 0 mm 0 W/m2
22:37 0.8 °C -1.8 °C 1019.2 hPa WNW 8 km/h 14.5 km/h 83 % 0 mm 0 W/m2
22:42 0.8 °C -1.8 °C 1019.2 hPa NW 9.7 km/h 14.5 km/h 83 % 0 mm 0 W/m2
22:47 0.8 °C -1.8 °C 1019.2 hPa WNW 9.7 km/h 16.1 km/h 83 % 0 mm 0 W/m2
22:52 0.7 °C -1.8 °C 1019.2 hPa WNW 11.3 km/h 16.1 km/h 83 % 0 mm 0 W/m2
22:57 0.7 °C -1.8 °C 1019.2 hPa WNW 11.3 km/h 19.3 km/h 83 % 0 mm 0 W/m2
23:02 0.7 °C -1.8 °C 1019.2 hPa NW 9.7 km/h 14.5 km/h 83 % 0 mm 0 W/m2
23:07 0.6 °C -1.9 °C 1019.2 hPa WNW 11.3 km/h 17.7 km/h 83 % 0 mm 0 W/m2
23:12 0.6 °C -2.1 °C 1019.2 hPa WNW 9.7 km/h 16.1 km/h 82 % 0 mm 0 W/m2
23:17 0.5 °C -2.2 °C 1019.2 hPa WNW 9.7 km/h 16.1 km/h 82 % 0 mm 0 W/m2
23:22 0.4 °C -2.3 °C 1019.2 hPa WNW 9.7 km/h 16.1 km/h 82 % 0 mm 0 W/m2
23:27 0.4 °C -2.3 °C 1019.2 hPa WNW 8 km/h 16.1 km/h 82 % 0 mm 0 W/m2
23:32 0.3 °C -2.4 °C 1019.5 hPa WNW 8 km/h 11.3 km/h 82 % 0 mm 0 W/m2
23:37 0.3 °C -2.4 °C 1019.5 hPa WNW 9.7 km/h 14.5 km/h 82 % 0 mm 0 W/m2
23:42 0.3 °C -2.2 °C 1019.2 hPa WNW 8 km/h 16.1 km/h 83 % 0 mm 0 W/m2
23:47 0.2 °C -2.3 °C 1019.2 hPa NW 9.7 km/h 16.1 km/h 83 % 0 mm 0 W/m2
23:52 0.2 °C -2.3 °C 1019.5 hPa WNW 9.7 km/h 17.7 km/h 83 % 0 mm 0 W/m2
23:57 0.2 °C -2.5 °C 1019.5 hPa WNW 11.3 km/h 17.7 km/h 82 % 0 mm 0 W/m2
Delerius-Weather
Compliments of Weather Underground - 2.25 mb

Data updates at regular intervals.